Time;durP1;ratioP1;P1;durP2;ratioP2;P2;SDS_P1;SDS_P2;PMS_P1;PMS_P2;Temp;Humidity;BMP_temperature;BMP_pressure;BME280_temperature;BME280_humidity;BME280_pressure;Samples;Min_cycle;Max_cycle;Signal;HPM_P1;HPM_P2
2020/12/29 00:05:11;;;;;;;15.30;13.38;;;;;;;;;;4446779;28;20119;-59
2020/12/29 00:07:36;;;;;;;15.77;12.75;;;;;;;;;;4137286;34;20519;-60
2020/12/29 00:10:02;;;;;;;16.85;14.48;;;;;;;;;;4137092;34;20495;-60
2020/12/29 00:12:30;;;;;;;17.42;14.43;;;;;;;;;;4137526;34;20138;-61
2020/12/29 00:14:56;;;;;;;17.62;14.85;;;;;;;;;;4137485;34;20507;-60
2020/12/29 00:17:22;;;;;;;17.05;14.45;;;;;;;;;;4137611;34;20123;-60
2020/12/29 00:19:48;;;;;;;18.20;15.45;;;;;;;;;;4137654;34;20137;-60
2020/12/29 00:22:14;;;;;;;16.65;14.77;;;;;;;;;;4137519;34;20131;-60
2020/12/29 00:24:40;;;;;;;16.87;13.75;;;;;;;;;;4137356;34;20120;-60
2020/12/29 00:27:05;;;;;;;14.80;13.20;;;;;;;;;;4137515;34;20138;-60
2020/12/29 00:29:31;;;;;;;17.80;14.05;;;;;;;;;;4137324;34;20134;-60
2020/12/29 00:31:57;;;;;;;15.30;13.68;;;;;;;;;;4137392;34;20134;-60
2020/12/29 00:34:23;;;;;;;14.73;12.95;;;;;;;;;;4137657;34;20537;-61
2020/12/29 00:36:51;;;;;;;12.70;11.25;;;;;;;;;;4137649;34;20107;-60
2020/12/29 00:39:17;;;;;;;12.70;11.05;;;;;;;;;;4137498;34;20124;-60
2020/12/29 00:41:43;;;;;;;12.70;11.25;;;;;;;;;;4137360;34;20212;-60
2020/12/29 00:44:09;;;;;;;10.82;9.73;;;;;;;;;;4137303;34;20519;-61
2020/12/29 00:46:35;;;;;;;10.50;9.48;;;;;;;;;;4137364;34;20632;-60
2020/12/29 00:49:01;;;;;;;10.73;9.63;;;;;;;;;;4137178;34;20226;-66
2020/12/29 00:51:27;;;;;;;10.85;9.65;;;;;;;;;;4137233;34;20217;-60
2020/12/29 00:53:53;;;;;;;11.68;9.73;;;;;;;;;;4137473;34;20150;-60
2020/12/29 00:56:18;;;;;;;10.82;9.73;;;;;;;;;;4137563;34;20433;-60
2020/12/29 00:58:44;;;;;;;11.55;10.32;;;;;;;;;;4137185;34;20504;-60
2020/12/29 01:01:10;;;;;;;11.73;10.52;;;;;;;;;;4137252;34;20127;-60
2020/12/29 01:03:37;;;;;;;12.48;10.73;;;;;;;;;;4137070;34;20212;-60
2020/12/29 01:06:03;;;;;;;12.23;11.05;;;;;;;;;;4137333;34;20194;-60
2020/12/29 01:08:29;;;;;;;13.05;11.10;;;;;;;;;;4137306;34;20199;-60
2020/12/29 01:10:56;;;;;;;12.40;11.20;;;;;;;;;;4137272;34;20213;-60
2020/12/29 01:13:21;;;;;;;12.60;11.40;;;;;;;;;;4137089;34;20096;-60
2020/12/29 01:15:48;;;;;;;12.52;11.23;;;;;;;;;;4137047;34;20138;-60
2020/12/29 01:18:13;;;;;;;13.38;12.13;;;;;;;;;;4137084;34;20126;-60
2020/12/29 01:20:39;;;;;;;13.73;12.32;;;;;;;;;;4124144;34;20504;-61
2020/12/29 01:23:05;;;;;;;13.73;12.43;;;;;;;;;;4137030;34;20138;-60
2020/12/29 01:25:31;;;;;;;13.13;11.75;;;;;;;;;;4137135;34;20115;-61
2020/12/29 01:27:57;;;;;;;13.93;12.52;;;;;;;;;;4137003;34;20126;-61
2020/12/29 01:30:23;;;;;;;14.10;12.68;;;;;;;;;;4136840;34;20121;-60
2020/12/29 01:32:49;;;;;;;13.77;11.88;;;;;;;;;;4136954;34;20107;-60
2020/12/29 01:35:15;;;;;;;12.50;11.20;;;;;;;;;;4137329;34;20111;-60
2020/12/29 01:37:42;;;;;;;12.30;11.10;;;;;;;;;;4135510;34;20512;-60
2020/12/29 01:40:08;;;;;;;12.13;11.02;;;;;;;;;;4124334;34;20216;-60
2020/12/29 01:42:34;;;;;;;11.70;10.60;;;;;;;;;;4137093;34;20135;-60
2020/12/29 01:45:00;;;;;;;12.82;11.50;;;;;;;;;;4136817;34;20201;-60
2020/12/29 01:47:26;;;;;;;13.10;11.80;;;;;;;;;;4136843;34;20112;-60
2020/12/29 01:49:52;;;;;;;13.55;12.20;;;;;;;;;;4136669;34;20122;-60
2020/12/29 01:52:18;;;;;;;16.10;14.60;;;;;;;;;;4135362;34;20547;-60
2020/12/29 01:54:44;;;;;;;14.95;13.45;;;;;;;;;;4136659;34;20119;-60
2020/12/29 01:57:10;;;;;;;13.27;11.90;;;;;;;;;;4136823;34;20131;-60
2020/12/29 01:59:35;;;;;;;16.08;13.85;;;;;;;;;;4136545;34;20143;-61
2020/12/29 02:02:01;;;;;;;14.52;12.98;;;;;;;;;;4124460;34;20115;-61
2020/12/29 02:04:27;;;;;;;13.60;11.85;;;;;;;;;;4136539;34;20134;-60
2020/12/29 02:06:53;;;;;;;13.75;12.35;;;;;;;;;;4135590;34;20263;-60
2020/12/29 02:09:19;;;;;;;13.43;12.02;;;;;;;;;;4135122;34;20115;-61
2020/12/29 02:11:45;;;;;;;13.80;12.32;;;;;;;;;;4136754;34;20107;-60
2020/12/29 02:14:11;;;;;;;14.00;12.32;;;;;;;;;;4136508;34;20115;-60
2020/12/29 02:16:40;;;;;;;15.38;12.90;;;;;;;;;;4136540;34;20220;-60
2020/12/29 02:19:06;;;;;;;12.40;11.15;;;;;;;;;;4136443;34;20352;-60
2020/12/29 02:21:33;;;;;;;13.45;12.05;;;;;;;;;;4136400;34;20522;-61
2020/12/29 02:23:59;;;;;;;13.52;12.13;;;;;;;;;;4134870;34;20484;-61
2020/12/29 02:26:30;;;;;;;13.98;12.50;;;;;;;;;;4136427;34;20477;-62
2020/12/29 02:28:59;;;;;;;14.87;13.27;;;;;;;;;;4136357;34;20134;-61
2020/12/29 02:31:25;;;;;;;14.63;13.07;;;;;;;;;;4135718;34;20260;-60
2020/12/29 02:33:51;;;;;;;16.42;13.48;;;;;;;;;;4136198;34;20603;-61
2020/12/29 02:36:17;;;;;;;17.77;13.73;;;;;;;;;;4136367;34;20119;-61
2020/12/29 02:38:43;;;;;;;18.02;15.02;;;;;;;;;;4136231;34;20131;-61
2020/12/29 02:41:11;;;;;;;16.00;13.30;;;;;;;;;;4136361;34;20583;-62
2020/12/29 02:43:37;;;;;;;15.35;13.75;;;;;;;;;;4136198;34;20107;-61
2020/12/29 02:46:04;;;;;;;15.18;13.57;;;;;;;;;;4136251;34;20201;-60
2020/12/29 02:48:30;;;;;;;14.80;12.93;;;;;;;;;;4136160;34;20445;-60
2020/12/29 02:50:55;;;;;;;14.48;12.98;;;;;;;;;;4136069;34;20110;-63
2020/12/29 02:53:21;;;;;;;15.02;13.30;;;;;;;;;;4136144;34;20099;-61
2020/12/29 02:55:47;;;;;;;15.30;12.70;;;;;;;;;;4136133;34;20140;-61
2020/12/29 02:58:13;;;;;;;13.80;12.32;;;;;;;;;;4136101;34;20532;-60
2020/12/29 03:00:39;;;;;;;15.27;13.68;;;;;;;;;;4136025;34;20112;-60
2020/12/29 03:03:04;;;;;;;15.63;13.43;;;;;;;;;;4136111;34;20115;-60
2020/12/29 03:05:30;;;;;;;14.43;12.88;;;;;;;;;;4137376;34;21228;-60
2020/12/29 03:07:56;;;;;;;16.27;13.25;;;;;;;;;;4148219;34;20211;-60
2020/12/29 03:10:22;;;;;;;13.15;11.85;;;;;;;;;;4136833;34;20231;-62
2020/12/29 03:12:48;;;;;;;13.07;11.25;;;;;;;;;;4136921;34;20559;-63
2020/12/29 03:15:14;;;;;;;14.10;12.20;;;;;;;;;;4135505;34;20483;-63
2020/12/29 03:17:40;;;;;;;14.75;13.25;;;;;;;;;;4148428;34;20115;-62
2020/12/29 03:20:06;;;;;;;13.32;10.82;;;;;;;;;;4147454;34;20142;-62
2020/12/29 03:22:32;;;;;;;13.32;10.95;;;;;;;;;;4136100;34;20122;-62
2020/12/29 03:24:58;;;;;;;11.20;10.00;;;;;;;;;;4134425;34;20141;-61
2020/12/29 03:27:24;;;;;;;11.98;10.68;;;;;;;;;;4147327;34;20220;-62
2020/12/29 03:29:50;;;;;;;10.95;9.85;;;;;;;;;;4134522;34;20230;-62
2020/12/29 03:32:16;;;;;;;12.07;10.77;;;;;;;;;;4146960;34;20536;-63
2020/12/29 03:34:42;;;;;;;14.70;12.55;;;;;;;;;;4147033;34;20127;-62
2020/12/29 03:37:08;;;;;;;14.43;12.93;;;;;;;;;;4147111;34;20463;-62
2020/12/29 03:39:35;;;;;;;14.57;11.70;;;;;;;;;;4148624;34;20121;-62
2020/12/29 03:42:01;;;;;;;14.48;12.98;;;;;;;;;;4149191;34;20117;-61
2020/12/29 03:44:27;;;;;;;14.35;11.80;;;;;;;;;;4151298;34;20115;-62
2020/12/29 03:46:53;;;;;;;11.93;10.40;;;;;;;;;;4138701;34;20543;-62
2020/12/29 03:49:19;;;;;;;12.90;11.50;;;;;;;;;;4151380;34;20174;-62
2020/12/29 03:51:45;;;;;;;12.75;11.45;;;;;;;;;;4151416;34;20139;-62
2020/12/29 03:54:11;;;;;;;11.45;10.25;;;;;;;;;;4151076;34;20227;-62
2020/12/29 03:56:37;;;;;;;12.57;11.27;;;;;;;;;;4151285;34;20129;-62
2020/12/29 03:59:21;;;;;;;;;;;;;;;;;;;;;
2020/12/29 04:01:48;;;;;;;11.40;10.15;;;;;;;;;;4151125;34;20231;-63
2020/12/29 04:04:14;;;;;;;11.60;10.25;;;;;;;;;;4149384;34;20120;-62
2020/12/29 04:06:40;;;;;;;10.40;9.25;;;;;;;;;;4151017;34;20159;-63
2020/12/29 04:09:05;;;;;;;12.80;10.55;;;;;;;;;;4151276;34;20119;-62
2020/12/29 04:11:31;;;;;;;11.35;10.15;;;;;;;;;;4150931;34;20194;-62
2020/12/29 04:13:57;;;;;;;10.38;9.38;;;;;;;;;;4150939;34;20544;-62
2020/12/29 04:16:23;;;;;;;11.90;9.80;;;;;;;;;;4151210;34;20110;-61
2020/12/29 04:18:50;;;;;;;11.55;10.38;;;;;;;;;;4150809;34;20142;-62
2020/12/29 04:21:15;;;;;;;10.32;9.23;;;;;;;;;;4150941;34;20500;-63
2020/12/29 04:23:41;;;;;;;10.93;9.82;;;;;;;;;;4150760;34;20147;-62
2020/12/29 04:26:13;;;;;;;10.18;9.18;;;;;;;;;;4150920;34;20150;-62
2020/12/29 04:28:39;;;;;;;9.05;8.15;;;;;;;;;;4150887;34;20131;-62
2020/12/29 04:31:09;;;;;;;9.00;8.10;;;;;;;;;;4138439;34;20659;-63
2020/12/29 04:33:34;;;;;;;9.15;8.27;;;;;;;;;;4150739;34;20134;-62
2020/12/29 04:36:00;;;;;;;9.23;8.23;;;;;;;;;;4150640;34;20491;-63
2020/12/29 04:38:26;;;;;;;9.52;8.52;;;;;;;;;;4150808;34;20531;-63
2020/12/29 04:40:53;;;;;;;9.85;8.73;;;;;;;;;;4150501;34;20155;-64
2020/12/29 04:43:19;;;;;;;9.50;8.57;;;;;;;;;;4150600;34;20100;-64
2020/12/29 04:45:45;;;;;;;9.75;8.77;;;;;;;;;;4138305;34;20126;-63
2020/12/29 04:48:11;;;;;;;9.18;8.27;;;;;;;;;;4150683;34;20189;-64
2020/12/29 04:50:37;;;;;;;10.38;9.27;;;;;;;;;;4150504;34;20210;-65
2020/12/29 04:53:03;;;;;;;10.48;9.43;;;;;;;;;;4138190;34;20518;-64
2020/12/29 04:55:29;;;;;;;11.60;10.25;;;;;;;;;;4126256;34;20219;-64
2020/12/29 04:57:57;;;;;;;10.57;9.55;;;;;;;;;;4150788;34;20170;-64
2020/12/29 05:00:23;;;;;;;10.05;9.15;;;;;;;;;;4150576;34;20503;-64
2020/12/29 05:02:49;;;;;;;10.45;9.45;;;;;;;;;;4126872;34;20574;-65
2020/12/29 05:05:15;;;;;;;10.32;9.32;;;;;;;;;;4150356;34;20123;-64
2020/12/29 05:07:42;;;;;;;11.27;10.05;;;;;;;;;;4150691;34;20211;-64
2020/12/29 05:10:08;;;;;;;10.70;9.60;;;;;;;;;;4138280;34;20306;-63
2020/12/29 05:12:46;;;;;;;10.48;9.48;;;;;;;;;;4150518;34;20177;-65
2020/12/29 05:15:12;;;;;;;10.40;9.30;;;;;;;;;;4127993;34;20125;-64
2020/12/29 05:17:38;;;;;;;10.20;9.18;;;;;;;;;;4150473;34;20149;-66
2020/12/29 05:20:04;;;;;;;9.80;8.90;;;;;;;;;;4150351;34;20590;-64
2020/12/29 05:22:30;;;;;;;9.85;8.63;;;;;;;;;;4137820;34;20528;-61
2020/12/29 05:24:56;;;;;;;9.35;8.48;;;;;;;;;;4150250;34;20111;-63
2020/12/29 05:27:22;;;;;;;11.23;10.13;;;;;;;;;;4137947;34;20520;-63
2020/12/29 05:29:48;;;;;;;10.00;9.00;;;;;;;;;;4137732;34;20122;-63
2020/12/29 05:32:18;;;;;;;10.27;9.27;;;;;;;;;;4137781;34;20199;-62
2020/12/29 05:34:43;;;;;;;11.20;9.18;;;;;;;;;;4137580;34;20150;-63
2020/12/29 05:37:13;;;;;;;10.95;9.85;;;;;;;;;;4137768;34;20126;-63
2020/12/29 05:39:39;;;;;;;9.75;8.75;;;;;;;;;;4150439;34;20110;-64
2020/12/29 05:42:05;;;;;;;9.80;8.90;;;;;;;;;;4150303;34;20115;-63
2020/12/29 05:44:32;;;;;;;9.73;8.75;;;;;;;;;;4126625;34;20127;-64
2020/12/29 05:47:02;;;;;;;8.80;8.00;;;;;;;;;;4150509;34;20128;-64
2020/12/29 05:49:31;;;;;;;9.70;8.73;;;;;;;;;;4150297;34;20119;-65
2020/12/29 05:51:57;;;;;;;9.63;8.73;;;;;;;;;;4150295;34;20202;-64
2020/12/29 05:54:25;;;;;;;9.90;8.80;;;;;;;;;;4149794;34;20181;-63
2020/12/29 05:56:53;;;;;;;9.73;8.73;;;;;;;;;;4149765;34;20123;-65
2020/12/29 05:59:19;;;;;;;10.48;9.48;;;;;;;;;;4149836;34;20130;-64
2020/12/29 06:01:52;;;;;;;9.60;8.70;;;;;;;;;;4137314;34;20150;-64
2020/12/29 06:04:19;;;;;;;9.30;8.30;;;;;;;;;;4149829;34;20493;-63
2020/12/29 06:06:46;;;;;;;9.48;8.50;;;;;;;;;;4148840;34;20103;-63
2020/12/29 06:09:19;;;;;;;10.23;9.23;;;;;;;;;;4149686;34;20527;-63
2020/12/29 06:11:48;;;;;;;11.38;10.18;;;;;;;;;;4149764;34;20524;-63
2020/12/29 06:14:16;;;;;;;9.77;8.88;;;;;;;;;;4150051;34;20130;-63
2020/12/29 06:16:42;;;;;;;9.48;8.57;;;;;;;;;;4149683;34;20218;-64
2020/12/29 06:19:24;;;;;;;9.15;8.20;;;;;;;;;;4149865;34;20127;-62
2020/12/29 06:22:02;;;;;;;9.38;8.48;;;;;;;;;;4149693;34;20181;-61
2020/12/29 06:24:29;;;;;;;9.45;8.55;;;;;;;;;;4149783;34;20119;-63
2020/12/29 06:26:56;;;;;;;9.68;8.70;;;;;;;;;;4149823;34;20113;-64
2020/12/29 06:29:22;;;;;;;9.80;8.90;;;;;;;;;;4137133;34;20117;-64
2020/12/29 06:31:49;;;;;;;9.93;8.70;;;;;;;;;;4137016;34;20147;-64
2020/12/29 06:34:15;;;;;;;9.82;8.73;;;;;;;;;;4149638;34;20154;-64
2020/12/29 06:36:41;;;;;;;10.55;9.38;;;;;;;;;;4125901;34;20138;-63
2020/12/29 06:39:07;;;;;;;13.65;9.75;;;;;;;;;;4125725;34;20174;-64
2020/12/29 06:41:34;;;;;;;11.68;10.48;;;;;;;;;;4137255;34;20107;-64
2020/12/29 06:44:04;;;;;;;12.02;10.75;;;;;;;;;;4149376;34;20239;-65
2020/12/29 06:46:30;;;;;;;11.75;10.55;;;;;;;;;;4137217;34;20504;-66
2020/12/29 06:49:19;;;;;;;11.18;10.07;;;;;;;;;;4149394;34;20115;-65
2020/12/29 06:51:46;;;;;;;11.32;10.18;;;;;;;;;;4149345;34;20207;-64
2020/12/29 06:54:22;;;;;;;10.80;9.70;;;;;;;;;;4149602;34;20435;-64
2020/12/29 06:57:00;;;;;;;10.70;9.57;;;;;;;;;;4126416;34;20574;-64
2020/12/29 06:59:37;;;;;;;11.27;10.10;;;;;;;;;;4149479;34;20103;-64
2020/12/29 07:02:03;;;;;;;11.23;10.05;;;;;;;;;;4137040;34;20193;-64
2020/12/29 07:04:29;;;;;;;10.85;9.38;;;;;;;;;;4149187;34;20637;-65
2020/12/29 07:06:55;;;;;;;12.85;9.60;;;;;;;;;;4125798;34;20193;-62
2020/12/29 07:09:26;;;;;;;11.30;10.15;;;;;;;;;;4136687;34;20111;-63
2020/12/29 07:12:08;;;;;;;11.05;9.95;;;;;;;;;;4149314;34;20110;-63
2020/12/29 07:14:34;;;;;;;10.13;9.13;;;;;;;;;;4136697;34;20135;-63
2020/12/29 07:17:00;;;;;;;9.88;8.98;;;;;;;;;;4149424;34;20119;-63
2020/12/29 07:19:27;;;;;;;9.00;8.00;;;;;;;;;;4151153;34;20130;-64
2020/12/29 07:21:53;;;;;;;10.60;9.50;;;;;;;;;;4151238;34;20119;-62
2020/12/29 07:24:19;;;;;;;9.38;8.40;;;;;;;;;;4151054;34;20502;-64
2020/12/29 07:26:45;;;;;;;8.13;7.30;;;;;;;;;;4151115;34;20122;-62
2020/12/29 07:29:11;;;;;;;8.27;7.47;;;;;;;;;;4151043;34;20163;-63
2020/12/29 07:31:41;;;;;;;7.72;6.93;;;;;;;;;;4151110;34;20106;-64
2020/12/29 07:34:12;;;;;;;7.68;6.97;;;;;;;;;;4151015;34;20127;-61
2020/12/29 07:36:46;;;;;;;8.68;7.75;;;;;;;;;;4144864;34;20138;-64
2020/12/29 07:39:13;;;;;;;8.82;7.93;;;;;;;;;;4147076;34;20115;-62
2020/12/29 07:41:39;;;;;;;8.40;7.60;;;;;;;;;;4148236;34;20179;-61
2020/12/29 07:44:05;;;;;;;9.00;8.10;;;;;;;;;;4138280;34;20135;-61
2020/12/29 07:46:31;;;;;;;8.88;7.97;;;;;;;;;;4150793;34;20106;-59
2020/12/29 07:48:59;;;;;;;9.23;8.32;;;;;;;;;;4150495;34;20169;-61
2020/12/29 07:51:25;;;;;;;8.65;7.80;;;;;;;;;;4150468;34;20130;-62
2020/12/29 07:53:51;;;;;;;8.88;7.97;;;;;;;;;;4150785;34;20466;-60
2020/12/29 07:56:18;;;;;;;9.45;7.60;;;;;;;;;;4150999;34;20463;-62
2020/12/29 07:58:44;;;;;;;8.68;7.78;;;;;;;;;;4150295;34;20538;-62
2020/12/29 08:01:11;;;;;;;9.85;7.20;;;;;;;;;;4150545;34;20297;-61
2020/12/29 08:03:38;;;;;;;7.85;7.00;;;;;;;;;;4150173;34;20130;-61
2020/12/29 08:06:13;;;;;;;9.40;8.32;;;;;;;;;;4137669;34;20115;-61
2020/12/29 08:08:41;;;;;;;8.63;6.77;;;;;;;;;;4150919;34;20111;-63
2020/12/29 18:09:12;;;;;;;20.98;17.35;;;;;;;;;;4135298;34;20134;-61
2020/12/29 18:11:38;;;;;;;19.65;17.55;;;;;;;;;;4136454;34;20473;-60
2020/12/29 18:14:05;;;;;;;19.83;16.45;;;;;;;;;;4136340;34;20179;-61
2020/12/29 18:16:30;;;;;;;20.33;16.65;;;;;;;;;;4136518;34;20550;-59
2020/12/29 18:18:59;;;;;;;19.52;16.40;;;;;;;;;;4136214;34;20204;-61
2020/12/29 18:21:30;;;;;;;19.30;15.18;;;;;;;;;;4145996;34;20166;-58
2020/12/29 18:23:56;;;;;;;18.45;15.88;;;;;;;;;;4136293;34;20099;-59
2020/12/29 18:26:25;;;;;;;17.08;15.13;;;;;;;;;;4136567;34;20241;-63
2020/12/29 18:28:53;;;;;;;17.17;15.38;;;;;;;;;;4136409;34;20528;-62
2020/12/29 18:31:24;;;;;;;18.85;17.00;;;;;;;;;;4136474;34;20121;-64
2020/12/29 18:33:50;;;;;;;18.33;15.52;;;;;;;;;;4136072;34;20127;-63
2020/12/29 18:36:19;;;;;;;20.20;17.77;;;;;;;;;;4136225;34;20135;-63
2020/12/29 18:38:45;;;;;;;19.08;16.92;;;;;;;;;;4136085;34;20100;-64
2020/12/29 18:41:14;;;;;;;20.20;17.87;;;;;;;;;;4133394;34;20091;-63
2020/12/29 18:43:40;;;;;;;21.08;17.20;;;;;;;;;;4130280;34;20485;-64
2020/12/29 18:46:09;;;;;;;19.52;17.40;;;;;;;;;;4134692;34;20171;-65
2020/12/29 18:48:35;;;;;;;18.37;15.70;;;;;;;;;;4129706;34;20119;-64
2020/12/29 18:51:07;;;;;;;18.75;16.37;;;;;;;;;;4134615;34;20138;-65
2020/12/29 18:53:44;;;;;;;20.25;17.45;;;;;;;;;;4134784;34;20197;-64
2020/12/29 18:56:40;;;;;;;19.52;17.23;;;;;;;;;;4134224;34;20131;-65
2020/12/29 18:59:32;;;;;;;22.73;18.52;;;;;;;;;;4148350;28;20110;-64
2020/12/29 19:02:08;;;;;;;20.60;16.40;;;;;;;;;;4189785;34;20137;-64
2020/12/29 19:04:41;;;;;;;20.50;18.40;;;;;;;;;;4190155;34;20109;-64
2020/12/29 19:07:09;;;;;;;19.40;17.33;;;;;;;;;;4190358;34;20118;-63
2020/12/29 19:09:35;;;;;;;20.58;18.35;;;;;;;;;;4190085;34;20215;-68
2020/12/29 19:12:03;;;;;;;21.45;18.77;;;;;;;;;;4190096;34;20177;-64
2020/12/29 19:14:36;;;;;;;21.50;18.73;;;;;;;;;;4191422;34;20101;-65
2020/12/29 19:17:07;;;;;;;23.08;18.85;;;;;;;;;;4188694;34;20478;-67
2020/12/29 19:19:42;;;;;;;23.10;19.30;;;;;;;;;;4192392;34;20570;-68
2020/12/29 19:22:08;;;;;;;22.58;19.45;;;;;;;;;;4184171;34;20217;-72
2020/12/29 19:24:41;;;;;;;24.12;19.23;;;;;;;;;;4181363;34;20125;-72
2020/12/29 19:27:15;;;;;;;;;;;;;;;;;;4190954;34;20115;-63
2020/12/29 19:29:48;;;;;;;21.15;18.85;;;;;;;;;;4191703;34;20004;-65
2020/12/29 19:32:16;;;;;;;23.35;20.12;;;;;;;;;;4191766;34;20098;-66
2020/12/29 19:34:45;;;;;;;21.60;19.17;;;;;;;;;;4191996;34;20201;-64
2020/12/29 19:37:14;;;;;;;24.42;20.25;;;;;;;;;;4191937;34;20221;-64
2020/12/29 19:39:43;;;;;;;24.52;14.23;;;;;;;;;;4191506;34;20467;-64
2020/12/29 19:42:09;;;;;;;19.80;13.18;;;;;;;;;;4189012;34;20110;-63
2020/12/29 19:44:37;;;;;;;21.55;19.25;;;;;;;;;;4192099;34;20098;-64
2020/12/29 19:47:03;;;;;;;20.08;17.98;;;;;;;;;;4188342;34;20550;-64
2020/12/29 19:49:29;;;;;;;22.58;18.25;;;;;;;;;;4179380;34;20117;-64
2020/12/29 19:51:56;;;;;;;22.80;18.80;;;;;;;;;;4192261;34;20106;-64
2020/12/29 19:54:24;;;;;;;20.58;17.80;;;;;;;;;;4191958;34;20150;-65
2020/12/29 19:56:50;;;;;;;21.33;19.05;;;;;;;;;;4191990;34;20201;-64
2020/12/29 19:59:16;;;;;;;22.95;18.73;;;;;;;;;;4191717;34;20129;-64
2020/12/29 20:01:47;;;;;;;19.65;17.27;;;;;;;;;;4191901;34;20518;-64
2020/12/29 20:04:14;;;;;;;20.75;18.17;;;;;;;;;;4191822;34;20125;-65
2020/12/29 20:06:40;;;;;;;21.67;17.90;;;;;;;;;;4185875;34;20117;-63
2020/12/29 20:09:06;;;;;;;26.40;22.75;;;;;;;;;;4191794;34;20130;-63
2020/12/29 20:11:32;;;;;;;23.27;20.83;;;;;;;;;;4191863;34;20124;-63
2020/12/29 20:13:58;;;;;;;22.17;19.62;;;;;;;;;;4191843;34;20138;-65
2020/12/29 20:16:24;;;;;;;22.52;20.12;;;;;;;;;;4190108;34;20146;-63
2020/12/29 20:18:50;;;;;;;21.60;18.20;;;;;;;;;;4186783;34;20202;-64
2020/12/29 20:21:16;;;;;;;19.70;17.65;;;;;;;;;;4190488;34;20142;-63
2020/12/29 20:23:42;;;;;;;24.05;19.50;;;;;;;;;;4191992;34;20516;-64
2020/12/29 20:26:08;;;;;;;23.92;18.37;;;;;;;;;;4190881;34;20113;-64
2020/12/29 20:28:34;;;;;;;18.83;16.83;;;;;;;;;;4191987;34;20114;-64
2020/12/29 20:31:01;;;;;;;19.20;16.62;;;;;;;;;;4191816;34;20117;-64
2020/12/29 20:33:30;;;;;;;20.02;16.77;;;;;;;;;;4191732;34;20558;-64
2020/12/29 20:35:56;;;;;;;19.80;17.70;;;;;;;;;;4191921;34;20487;-64
2020/12/29 20:38:22;;;;;;;20.65;16.60;;;;;;;;;;4191779;34;20157;-65
2020/12/29 20:40:49;;;;;;;18.33;16.17;;;;;;;;;;4191686;34;20129;-64
2020/12/29 20:43:17;;;;;;;20.50;18.10;;;;;;;;;;4191626;34;20106;-64
2020/12/29 20:45:43;;;;;;;19.80;17.70;;;;;;;;;;4191415;34;20114;-64
2020/12/29 20:48:09;;;;;;;19.23;17.23;;;;;;;;;;4191625;34;20230;-64
2020/12/29 20:50:35;;;;;;;20.05;17.87;;;;;;;;;;4191484;34;20114;-64
2020/12/29 20:53:01;;;;;;;21.40;17.90;;;;;;;;;;4191775;34;20139;-65
2020/12/29 20:55:27;;;;;;;22.05;19.10;;;;;;;;;;4189757;34;20125;-64
2020/12/29 20:57:53;;;;;;;20.48;17.98;;;;;;;;;;4191546;34;20463;-65
2020/12/29 21:00:19;;;;;;;20.62;18.37;;;;;;;;;;4200386;34;20561;-65
2020/12/29 21:02:46;;;;;;;19.20;17.15;;;;;;;;;;4185730;34;20149;-64
2020/12/29 21:05:12;;;;;;;19.15;16.90;;;;;;;;;;4189971;34;20133;-63
2020/12/29 21:07:37;;;;;;;21.85;17.80;;;;;;;;;;4191384;34;20561;-65
2020/12/29 21:10:03;;;;;;;20.48;18.27;;;;;;;;;;4191310;34;20122;-65
2020/12/29 21:12:29;;;;;;;19.90;17.85;;;;;;;;;;4191650;34;20149;-64
2020/12/29 21:14:55;;;;;;;20.02;17.90;;;;;;;;;;4191296;34;20118;-64
2020/12/29 21:17:21;;;;;;;19.33;17.23;;;;;;;;;;4191363;34;20118;-64
2020/12/29 21:19:47;;;;;;;18.83;16.77;;;;;;;;;;4191170;34;20110;-64
2020/12/29 21:22:13;;;;;;;18.12;15.68;;;;;;;;;;4191313;34;20105;-63
2020/12/29 21:24:39;;;;;;;16.50;14.80;;;;;;;;;;4191193;34;20221;-63
2020/12/29 21:27:05;;;;;;;15.93;14.32;;;;;;;;;;4191516;34;20114;-64
2020/12/29 21:29:31;;;;;;;16.25;14.65;;;;;;;;;;4195751;34;20122;-64
2020/12/29 21:31:57;;;;;;;15.88;14.38;;;;;;;;;;4191219;34;20133;-65
2020/12/29 21:34:23;;;;;;;18.02;16.23;;;;;;;;;;4191387;34;20118;-64
2020/12/29 21:36:49;;;;;;;17.55;15.73;;;;;;;;;;4190830;34;20138;-63
2020/12/29 21:39:14;;;;;;;15.70;14.02;;;;;;;;;;4188695;34;20118;-63
2020/12/29 21:41:40;;;;;;;15.20;13.77;;;;;;;;;;4191322;34;20117;-62
2020/12/29 21:44:06;;;;;;;14.68;13.18;;;;;;;;;;4199241;34;20120;-63
2020/12/29 21:46:32;;;;;;;15.32;13.80;;;;;;;;;;4191438;34;20157;-64
2020/12/29 21:48:58;;;;;;;15.68;14.18;;;;;;;;;;4191077;34;20137;-64
2020/12/29 21:51:25;;;;;;;16.45;14.75;;;;;;;;;;4191082;34;20124;-63
2020/12/29 21:53:51;;;;;;;16.55;14.95;;;;;;;;;;4191173;34;20451;-63
2020/12/29 21:56:18;;;;;;;16.70;15.07;;;;;;;;;;4191243;34;20129;-63
2020/12/29 21:58:44;;;;;;;16.12;14.63;;;;;;;;;;4190858;34;20447;-64
2020/12/29 22:01:11;;;;;;;16.70;15.02;;;;;;;;;;4190775;34;20121;-63
2020/12/29 22:03:37;;;;;;;17.65;15.75;;;;;;;;;;4196430;34;20126;-63
2020/12/29 22:06:13;;;;;;;17.75;15.52;;;;;;;;;;4191255;34;20141;-64
2020/12/29 22:08:39;;;;;;;16.80;15.05;;;;;;;;;;4190956;34;20664;-63
2020/12/29 22:11:05;;;;;;;17.75;15.88;;;;;;;;;;4190852;34;20109;-62
2020/12/29 22:13:31;;;;;;;18.10;15.23;;;;;;;;;;4190902;34;20222;-62
2020/12/29 22:15:57;;;;;;;16.98;15.30;;;;;;;;;;4190754;34;20556;-63
2020/12/29 22:18:23;;;;;;;18.15;16.27;;;;;;;;;;4190824;34;20102;-63
2020/12/29 22:20:49;;;;;;;16.80;14.75;;;;;;;;;;4190735;34;20184;-63
2020/12/29 22:23:14;;;;;;;17.10;15.30;;;;;;;;;;4191081;34;20204;-64
2020/12/29 22:25:40;;;;;;;17.15;15.40;;;;;;;;;;4190603;34;20134;-64
2020/12/29 22:28:06;;;;;;;17.15;15.45;;;;;;;;;;4190851;34;20574;-63
2020/12/29 22:30:32;;;;;;;18.35;15.82;;;;;;;;;;4183944;34;20526;-63
2020/12/29 22:32:58;;;;;;;17.80;15.93;;;;;;;;;;4190564;34;20094;-63
2020/12/29 22:35:24;;;;;;;17.52;15.48;;;;;;;;;;4190494;34;20106;-62
2020/12/29 22:37:50;;;;;;;17.33;15.52;;;;;;;;;;4190584;34;20137;-62
2020/12/29 22:40:16;;;;;;;18.12;15.73;;;;;;;;;;4190576;34;20264;-63
2020/12/29 22:42:41;;;;;;;19.10;17.10;;;;;;;;;;4190628;34;20572;-64
2020/12/29 22:45:07;;;;;;;17.92;16.10;;;;;;;;;;4190495;34;20118;-64
2020/12/29 22:47:36;;;;;;;18.87;16.98;;;;;;;;;;4195233;34;20111;-64
2020/12/29 22:50:05;;;;;;;18.87;16.70;;;;;;;;;;4192143;34;20114;-64
2020/12/29 22:52:31;;;;;;;17.35;15.55;;;;;;;;;;4186959;34;20117;-64
2020/12/29 22:54:57;;;;;;;18.75;16.10;;;;;;;;;;4192668;34;20137;-64
2020/12/29 22:57:23;;;;;;;17.92;16.05;;;;;;;;;;4192543;34;20111;-64
2020/12/29 22:59:52;;;;;;;18.75;16.65;;;;;;;;;;4187105;34;20157;-64
2020/12/29 23:02:18;;;;;;;18.20;16.33;;;;;;;;;;4192567;34;20258;-64
2020/12/29 23:04:44;;;;;;;17.05;15.25;;;;;;;;;;4192655;34;20137;-64
2020/12/29 23:07:10;;;;;;;18.08;16.12;;;;;;;;;;4192384;34;20186;-63
2020/12/29 23:09:36;;;;;;;17.65;15.85;;;;;;;;;;4185960;34;20129;-64
2020/12/29 23:12:03;;;;;;;16.70;14.82;;;;;;;;;;4192332;34;20125;-65
2020/12/29 23:14:29;;;;;;;18.65;16.62;;;;;;;;;;4192308;34;20511;-65
2020/12/29 23:16:54;;;;;;;17.37;15.57;;;;;;;;;;4192364;34;20138;-61
2020/12/29 23:19:20;;;;;;;18.67;16.55;;;;;;;;;;4190198;34;20114;-63
2020/12/29 23:21:46;;;;;;;19.27;16.52;;;;;;;;;;4192382;34;20110;-64
2020/12/29 23:24:12;;;;;;;18.00;16.20;;;;;;;;;;4192426;34;20161;-64
2020/12/29 23:26:38;;;;;;;16.85;15.13;;;;;;;;;;4192286;34;20162;-65
2020/12/29 23:29:04;;;;;;;17.27;15.50;;;;;;;;;;4188882;34;20181;-65
2020/12/29 23:31:30;;;;;;;19.17;17.02;;;;;;;;;;4192347;34;20098;-66
2020/12/29 23:33:56;;;;;;;17.33;15.48;;;;;;;;;;4192131;34;20105;-65
2020/12/29 23:36:23;;;;;;;18.75;16.33;;;;;;;;;;4190225;34;20103;-65
